Time;durP1;ratioP1;P1;durP2;ratioP2;P2;SDS_P1;SDS_P2;PMS_P1;PMS_P2;Temp;Humidity;BMP_temperature;BMP_pressure;BME280_temperature;BME280_humidity;BME280_pressure;Samples;Min_cycle;Max_cycle;Signal;HPM_P1;HPM_P2
2022/10/11 00:02:23;;;;;;;5.55;1.83;;;9.70;78.90;;;;;;5011857;28;20112;-68
2022/10/11 00:04:51;;;;;;;5.60;1.90;;;9.70;79.00;;;;;;5016396;28;20018;-68
2022/10/11 00:07:18;;;;;;;5.00;1.80;;;9.70;79.00;;;;;;5008820;28;20072;-68
2022/10/11 00:09:44;;;;;;;4.90;1.70;;;9.70;79.00;;;;;;5010754;28;20034;-68
2022/10/11 00:12:10;;;;;;;3.67;1.70;;;9.70;79.00;;;;;;5008736;28;20120;-68
2022/10/11 00:14:36;;;;;;;4.82;1.88;;;9.70;79.10;;;;;;5010239;28;20033;-68
2022/10/11 00:17:01;;;;;;;3.40;1.70;;;9.70;79.00;;;;;;5009735;28;20129;-69
2022/10/11 00:19:27;;;;;;;4.93;1.70;;;9.70;79.00;;;;;;4990553;28;20026;-67
2022/10/11 00:21:52;;;;;;;4.88;2.00;;;9.70;79.00;;;;;;4990953;28;20519;-68
2022/10/11 00:24:18;;;;;;;4.18;1.70;;;9.70;78.90;;;;;;5009019;28;20106;-66
2022/10/11 00:26:44;;;;;;;3.72;1.60;;;9.70;79.00;;;;;;5009920;28;20026;-67
2022/10/11 00:29:11;;;;;;;3.97;1.77;;;9.70;78.90;;;;;;5009461;28;20033;-67
2022/10/11 00:31:37;;;;;;;3.83;1.70;;;9.70;78.90;;;;;;5007428;28;20507;-67
2022/10/11 00:34:02;;;;;;;3.20;1.60;;;9.70;78.90;;;;;;5009103;28;20026;-66
2022/10/11 00:36:28;;;;;;;3.95;1.63;;;9.70;78.90;;;;;;5006283;28;20456;-68
2022/10/11 00:38:53;;;;;;;5.63;1.80;;;9.60;78.90;;;;;;5009028;28;20046;-68
2022/10/11 00:41:19;;;;;;;5.82;1.90;;;9.60;78.90;;;;;;5008971;28;20518;-68
2022/10/11 00:43:44;;;;;;;4.75;2.00;;;9.60;78.90;;;;;;5008542;28;21647;-68
2022/10/11 00:46:12;;;;;;;4.85;1.90;;;9.60;78.90;;;;;;5008030;28;20765;-68
2022/10/11 00:48:46;;;;;;;6.13;1.80;;;9.50;78.90;;;;;;5008822;28;20032;-68
2022/10/11 00:51:27;;;;;;;5.10;1.77;;;9.50;79.10;;;;;;5009731;28;20419;-68
2022/10/11 00:53:53;;;;;;;4.23;1.93;;;9.50;79.10;;;;;;5005972;28;20030;-68
2022/10/11 00:56:29;;;;;;;4.82;1.80;;;9.50;79.20;;;;;;5008511;28;20038;-66
2022/10/11 00:58:56;;;;;;;4.72;1.83;;;9.50;79.10;;;;;;5007774;28;20070;-68
2022/10/11 01:01:22;;;;;;;4.35;1.48;;;9.50;79.70;;;;;;5008609;28;20026;-68
2022/10/11 01:03:47;;;;;;;5.05;2.00;;;9.50;79.00;;;;;;5007359;28;20373;-68
2022/10/11 01:06:13;;;;;;;4.28;1.83;;;9.50;79.20;;;;;;5008616;28;20036;-68
2022/10/11 01:08:39;;;;;;;4.85;1.90;;;9.40;78.90;;;;;;5010255;28;20022;-70
2022/10/11 01:11:05;;;;;;;3.90;1.70;;;9.40;79.00;;;;;;5007472;28;20432;-69
2022/10/11 01:13:49;;;;;;;5.68;1.92;;;9.30;79.10;;;;;;5008535;28;20041;-69
2022/10/11 01:16:25;;;;;;;5.20;1.70;;;9.30;79.10;;;;;;5008898;28;20113;-70
2022/10/11 01:18:59;;;;;;;5.43;1.90;;;9.30;79.10;;;;;;5011596;28;20463;-67
2022/10/11 01:21:40;;;;;;;4.20;1.80;;;9.30;79.10;;;;;;5011591;28;20026;-69
2022/10/11 01:24:33;;;;;;;6.22;1.90;;;9.30;79.10;;;;;;5011062;28;20026;-67
2022/10/11 01:27:24;;;;;;;5.22;1.92;;;9.20;79.10;;;;;;5012898;28;20050;-69
2022/10/11 01:30:02;;;;;;;6.78;1.90;;;9.20;79.20;;;;;;5008789;28;20061;-69
2022/10/11 01:32:39;;;;;;;4.55;1.75;;;9.20;79.20;;;;;;5013248;28;20050;-70
2022/10/11 01:35:25;;;;;;;6.38;1.90;;;9.10;79.30;;;;;;5012180;28;20034;-67
2022/10/11 01:38:22;;;;;;;5.43;2.28;;;9.10;79.30;;;;;;5012320;28;20045;-67
2022/10/11 01:40:53;;;;;;;4.18;1.60;;;9.10;80.00;;;;;;5008069;28;20465;-69
2022/10/11 01:43:20;;;;;;;4.13;1.90;;;9.10;79.30;;;;;;5011356;28;20033;-68
2022/10/11 01:45:52;;;;;;;3.72;1.70;;;9.10;79.40;;;;;;5013842;28;20021;-69
2022/10/11 01:48:18;;;;;;;6.10;1.77;;;9.10;79.30;;;;;;5013884;28;20101;-67
2022/10/11 01:50:52;;;;;;;3.13;1.50;;;9.10;79.20;;;;;;5013046;28;20479;-68
2022/10/11 01:53:39;;;;;;;3.25;1.40;;;9.10;79.20;;;;;;5012138;28;20476;-68
2022/10/11 01:56:20;;;;;;;6.03;1.80;;;9.00;79.30;;;;;;5011432;28;20038;-67
2022/10/11 01:59:01;;;;;;;3.25;1.67;;;9.00;79.30;;;;;;5010743;28;20091;-68
2022/10/11 02:01:32;;;;;;;3.10;1.58;;;9.00;79.30;;;;;;5009322;28;20029;-70
2022/10/11 02:04:28;;;;;;;5.77;1.90;;;9.00;79.50;;;;;;5009545;28;20488;-68
2022/10/11 02:07:10;;;;;;;4.47;1.67;;;8.90;79.40;;;;;;5013649;28;20293;-68
2022/10/11 02:09:51;;;;;;;6.28;1.80;;;8.90;79.30;;;;;;5013139;28;20034;-68
2022/10/11 02:12:24;;;;;;;4.75;1.52;;;8.90;79.30;;;;;;5011341;28;20026;-70
2022/10/11 02:14:52;;;;;;;4.60;1.60;;;8.90;79.30;;;;;;5011154;28;20026;-68
2022/10/11 02:17:24;;;;;;;4.65;1.77;;;8.80;80.00;;;;;;5010234;28;20034;-69
2022/10/11 02:19:52;;;;;;;4.23;1.63;;;8.80;79.60;;;;;;5011076;28;20343;-69
2022/10/11 02:22:31;;;;;;;3.97;1.80;;;8.80;79.50;;;;;;5010073;28;20080;-67
2022/10/11 02:25:00;;;;;;;3.25;1.38;;;8.80;79.40;;;;;;5010138;28;20528;-69
2022/10/11 02:27:29;;;;;;;5.90;1.55;;;8.80;79.20;;;;;;5009982;28;20026;-68
2022/10/11 02:29:58;;;;;;;5.00;1.70;;;8.80;79.30;;;;;;5009318;28;20034;-69
2022/10/11 02:32:25;;;;;;;4.15;1.50;;;8.80;79.30;;;;;;5010709;28;20033;-69
2022/10/11 02:34:56;;;;;;;4.65;1.48;;;8.80;79.30;;;;;;5010150;28;20025;-70
2022/10/11 02:37:42;;;;;;;4.10;1.48;;;8.80;79.40;;;;;;5008331;28;20025;-70
2022/10/11 02:40:12;;;;;;;4.97;1.55;;;8.80;79.40;;;;;;5010777;28;20018;-69
2022/10/11 02:42:43;;;;;;;4.55;1.50;;;8.80;79.40;;;;;;5010445;28;20030;-68
2022/10/11 02:45:18;;;;;;;4.78;1.55;;;8.70;79.40;;;;;;5010365;28;20109;-71
2022/10/11 02:47:43;;;;;;;4.28;1.50;;;8.70;79.50;;;;;;5011114;28;20482;-71
2022/10/11 02:50:14;;;;;;;5.13;1.55;;;8.70;79.50;;;;;;5009064;28;20032;-71
2022/10/11 02:52:39;;;;;;;5.32;1.48;;;8.70;79.50;;;;;;5010628;28;20045;-70
2022/10/11 02:55:06;;;;;;;7.47;1.98;;;8.70;79.50;;;;;;5010010;28;20018;-70
2022/10/11 02:57:31;;;;;;;4.90;1.42;;;8.70;79.40;;;;;;5010282;28;20041;-70
2022/10/11 02:59:57;;;;;;;5.53;1.73;;;8.70;79.40;;;;;;5008258;28;20022;-70
2022/10/11 03:02:23;;;;;;;3.85;1.33;;;8.70;79.40;;;;;;5008233;28;20025;-70
2022/10/11 03:04:48;;;;;;;3.30;1.55;;;8.70;79.30;;;;;;5011096;28;20378;-70
2022/10/11 03:07:14;;;;;;;3.33;1.50;;;8.70;79.50;;;;;;5011006;28;20029;-70
2022/10/11 03:09:40;;;;;;;3.30;1.50;;;8.60;79.60;;;;;;5009594;28;20124;-69
2022/10/11 03:12:06;;;;;;;3.95;1.23;;;8.60;79.60;;;;;;5010562;28;20475;-69
2022/10/11 03:14:32;;;;;;;2.75;1.27;;;8.60;79.60;;;;;;5010241;28;20022;-68
2022/10/11 03:16:58;;;;;;;4.95;1.40;;;8.60;79.70;;;;;;5008288;28;20160;-67
2022/10/11 03:19:24;;;;;;;3.28;1.30;;;8.60;79.80;;;;;;5010418;28;20033;-69
2022/10/11 03:21:50;;;;;;;5.38;1.67;;;8.60;79.70;;;;;;5009645;28;20030;-68
2022/10/11 03:24:15;;;;;;;4.10;1.40;;;8.60;79.70;;;;;;5008543;28;20030;-67
2022/10/11 03:26:41;;;;;;;4.45;1.48;;;8.60;79.60;;;;;;5005502;28;20034;-68
2022/10/11 03:29:06;;;;;;;7.65;1.70;;;8.60;79.60;;;;;;5009804;28;20026;-69
2022/10/11 03:31:32;;;;;;;3.53;1.30;;;8.70;79.60;;;;;;5009759;28;20029;-65
2022/10/11 03:33:57;;;;;;;2.92;1.30;;;8.70;79.50;;;;;;5010182;28;20044;-68
2022/10/11 03:36:23;;;;;;;3.88;1.48;;;8.80;79.50;;;;;;5010009;28;20030;-69
2022/10/11 03:38:48;;;;;;;3.92;1.60;;;8.80;79.40;;;;;;5009145;28;20419;-68
2022/10/11 03:41:14;;;;;;;4.22;1.48;;;8.80;79.20;;;;;;5008683;28;20021;-68
2022/10/11 03:43:39;;;;;;;4.38;1.30;;;8.90;79.10;;;;;;5009146;28;20037;-70
2022/10/11 03:46:05;;;;;;;3.75;1.38;;;8.90;79.10;;;;;;5012146;28;20445;-69
2022/10/11 03:48:30;;;;;;;4.65;1.45;;;8.90;79.00;;;;;;5011138;28;20037;-68
2022/10/11 03:50:56;;;;;;;3.90;1.30;;;8.90;78.90;;;;;;5011965;28;20033;-71
2022/10/11 03:53:22;;;;;;;4.30;1.60;;;8.90;79.10;;;;;;5009545;28;20029;-70
2022/10/11 03:55:52;;;;;;;3.78;1.40;;;9.00;79.20;;;;;;5010509;28;20034;-70
2022/10/11 03:58:17;;;;;;;3.35;1.20;;;9.00;79.20;;;;;;5010855;28;20033;-70
2022/10/11 04:00:43;;;;;;;4.22;1.02;;;9.00;79.20;;;;;;5009573;28;20025;-70
2022/10/11 04:03:08;;;;;;;2.53;1.55;;;9.00;79.10;;;;;;5010248;28;20040;-70
2022/10/11 04:05:34;;;;;;;3.72;1.45;;;9.00;79.30;;;;;;5014745;28;20025;-70
2022/10/11 04:07:59;;;;;;;3.28;1.30;;;9.00;79.40;;;;;;5008620;28;20064;-70
2022/10/11 04:10:25;;;;;;;2.42;1.30;;;9.00;79.40;;;;;;5008238;28;20026;-69
2022/10/11 04:12:50;;;;;;;2.60;1.30;;;9.00;79.30;;;;;;5007867;28;20021;-70
2022/10/11 04:15:16;;;;;;;3.50;1.45;;;9.10;79.30;;;;;;5009290;28;20104;-71
2022/10/11 04:17:42;;;;;;;4.30;1.40;;;9.10;79.20;;;;;;5008340;28;20076;-69
2022/10/11 04:20:08;;;;;;;3.00;1.35;;;9.10;79.10;;;;;;5011523;28;20405;-70
2022/10/11 04:22:34;;;;;;;2.60;1.10;;;9.10;79.10;;;;;;5010572;28;20079;-68
2022/10/11 04:24:59;;;;;;;4.32;1.40;;;9.10;79.10;;;;;;5009968;28;20022;-68
2022/10/11 04:27:28;;;;;;;4.43;1.40;;;9.10;79.20;;;;;;5009363;28;20420;-69
2022/10/11 04:29:54;;;;;;;3.00;1.20;;;9.20;79.20;;;;;;5009348;28;20033;-68
2022/10/11 04:32:19;;;;;;;3.40;1.17;;;9.20;79.10;;;;;;5008283;28;20034;-69
2022/10/11 04:34:46;;;;;;;3.78;1.40;;;9.30;79.00;;;;;;5008153;28;20026;-69
2022/10/11 04:37:11;;;;;;;4.72;1.20;;;9.30;78.90;;;;;;5009930;28;20026;-69
2022/10/11 04:39:37;;;;;;;4.05;1.48;;;9.20;78.90;;;;;;5008675;28;20359;-68
2022/10/11 04:42:03;;;;;;;2.75;1.10;;;9.30;79.00;;;;;;5010304;28;20109;-69
2022/10/11 04:44:29;;;;;;;5.18;1.35;;;9.30;78.90;;;;;;5009504;28;20030;-69
2022/10/11 04:46:55;;;;;;;4.20;1.60;;;9.30;79.00;;;;;;5008376;28;20637;-69
2022/10/11 04:49:21;;;;;;;3.63;1.33;;;9.30;78.90;;;;;;5009317;28;20038;-69
2022/10/11 04:51:46;;;;;;;2.67;1.20;;;9.30;78.90;;;;;;5008413;28;20041;-68
2022/10/11 04:54:12;;;;;;;2.83;1.10;;;9.30;79.00;;;;;;5010329;28;20431;-69
2022/10/11 04:56:37;;;;;;;3.45;1.25;;;9.30;79.00;;;;;;5009906;28;20117;-66
2022/10/11 04:59:03;;;;;;;4.38;1.60;;;9.20;79.10;;;;;;5009975;28;20081;-68
2022/10/11 05:01:29;;;;;;;2.50;1.35;;;9.20;79.20;;;;;;5009262;28;20014;-68
2022/10/11 05:03:54;;;;;;;2.67;1.25;;;9.20;79.10;;;;;;5011009;28;20389;-69
2022/10/11 05:06:20;;;;;;;3.88;1.40;;;9.20;79.10;;;;;;5010919;28;20087;-68
2022/10/11 05:08:45;;;;;;;4.75;1.40;;;9.10;79.20;;;;;;5012832;28;20044;-68
2022/10/11 05:11:14;;;;;;;2.58;1.23;;;9.10;79.30;;;;;;5012164;28;20492;-67
2022/10/11 05:13:39;;;;;;;3.30;1.45;;;9.10;79.40;;;;;;5012338;28;20029;-69
2022/10/11 05:16:06;;;;;;;3.25;1.45;;;9.00;79.40;;;;;;5010985;28;20045;-68
2022/10/11 05:18:31;;;;;;;3.45;1.38;;;9.00;79.40;;;;;;5005372;28;20032;-69
2022/10/11 05:21:08;;;;;;;3.95;1.55;;;9.00;79.30;;;;;;5007797;28;20022;-69
2022/10/11 05:23:35;;;;;;;3.97;1.70;;;9.00;79.40;;;;;;4998792;28;20042;-69
2022/10/11 05:26:02;;;;;;;4.57;1.50;;;8.90;79.50;;;;;;5003631;28;20661;-69
2022/10/11 05:28:28;;;;;;;4.72;1.40;;;8.90;79.60;;;;;;5007317;28;20021;-67
2022/10/11 05:30:53;;;;;;;4.05;1.40;;;8.90;79.50;;;;;;5010154;28;20033;-68
2022/10/11 05:33:20;;;;;;;3.90;1.60;;;8.90;79.60;;;;;;5006043;28;20513;-71
2022/10/11 05:35:45;;;;;;;5.55;2.10;;;8.80;79.60;;;;;;5010020;28;20626;-67
2022/10/11 05:38:11;;;;;;;4.57;2.20;;;8.80;79.50;;;;;;5005873;28;20108;-69
2022/10/11 05:40:38;;;;;;;4.28;2.20;;;8.80;79.60;;;;;;5002826;28;20027;-69
2022/10/11 05:43:03;;;;;;;3.72;2.10;;;8.80;79.70;;;;;;5006264;28;20105;-68
2022/10/11 05:45:31;;;;;;;4.70;2.40;;;8.70;79.80;;;;;;5011145;28;20102;-69
2022/10/11 05:47:56;;;;;;;4.93;2.60;;;8.70;79.80;;;;;;5008400;28;20110;-68
2022/10/11 05:50:22;;;;;;;6.80;3.00;;;8.70;79.70;;;;;;5006009;28;20108;-69
2022/10/11 05:52:48;;;;;;;3.83;2.10;;;8.80;79.60;;;;;;5003910;28;20022;-69
2022/10/11 05:55:13;;;;;;;4.85;2.28;;;8.70;79.50;;;;;;5002911;28;20023;-69
2022/10/11 05:57:39;;;;;;;4.55;2.25;;;8.70;79.50;;;;;;5004759;28;20026;-68
2022/10/11 06:00:05;;;;;;;5.30;1.90;;;8.70;79.60;;;;;;4999470;28;20028;-68
2022/10/11 06:02:32;;;;;;;3.47;2.00;;;8.70;79.70;;;;;;4998818;28;20018;-67
2022/10/11 06:04:58;;;;;;;4.40;1.95;;;8.70;79.70;;;;;;5007498;28;20026;-68
2022/10/11 06:07:23;;;;;;;4.07;2.00;;;8.60;79.70;;;;;;5010381;28;20029;-69
2022/10/11 06:09:50;;;;;;;6.47;1.90;;;8.70;79.70;;;;;;5008632;28;20038;-68
2022/10/11 06:12:16;;;;;;;2.90;1.92;;;8.70;79.70;;;;;;5007945;28;20037;-68
2022/10/11 06:14:42;;;;;;;4.63;2.20;;;8.70;79.60;;;;;;5010723;28;20030;-68
2022/10/11 06:17:08;;;;;;;5.90;2.20;;;8.70;79.60;;;;;;5009068;28;20509;-69
2022/10/11 06:19:34;;;;;;;3.72;1.83;;;8.70;79.60;;;;;;5011394;28;20093;-68
2022/10/11 06:21:59;;;;;;;4.88;2.15;;;8.80;79.60;;;;;;5011163;28;20435;-68
2022/10/11 06:24:25;;;;;;;4.28;1.95;;;8.80;79.30;;;;;;5009950;28;20037;-69
2022/10/11 06:26:50;;;;;;;4.20;2.00;;;8.90;79.20;;;;;;5007766;28;20030;-69
2022/10/11 06:29:16;;;;;;;6.13;2.00;;;8.90;79.00;;;;;;5012338;28;20060;-68
2022/10/11 06:31:42;;;;;;;4.13;1.90;;;9.00;79.10;;;;;;5010038;28;20492;-68
2022/10/11 06:34:07;;;;;;;3.92;1.83;;;9.00;79.20;;;;;;5008870;28;20030;-67
2022/10/11 06:36:33;;;;;;;3.67;2.00;;;9.00;79.10;;;;;;5011659;28;20022;-68
2022/10/11 06:39:00;;;;;;;4.65;2.00;;;9.10;79.10;;;;;;5004502;28;20443;-68
2022/10/11 06:41:27;;;;;;;3.65;1.75;;;9.20;79.10;;;;;;5008361;28;20014;-69
2022/10/11 06:43:53;;;;;;;4.50;1.80;;;9.30;79.00;;;;;;5010345;28;20046;-69
2022/10/11 06:46:20;;;;;;;5.00;1.65;;;9.40;78.80;;;;;;5010407;28;20061;-68
2022/10/11 06:48:49;;;;;;;4.28;1.88;;;9.60;78.80;;;;;;5008361;28;20022;-68
2022/10/11 06:51:17;;;;;;;4.18;1.73;;;9.70;78.60;;;;;;5024256;28;20476;-67
2022/10/11 06:53:47;;;;;;;3.42;1.60;;;9.80;78.30;;;;;;5025327;28;20140;-67
2022/10/11 06:56:12;;;;;;;3.92;1.83;;;10.00;78.20;;;;;;5008192;28;20029;-68
2022/10/11 06:58:39;;;;;;;5.28;1.80;;;10.10;78.10;;;;;;5009595;28;20040;-69
2022/10/11 07:01:07;;;;;;;4.35;2.10;;;10.20;78.10;;;;;;5009011;28;20030;-69
2022/10/11 07:03:34;;;;;;;4.38;2.20;;;10.30;78.10;;;;;;5010044;28;20033;-69
2022/10/11 07:06:05;;;;;;;4.47;2.00;;;10.50;78.10;;;;;;5009763;28;20492;-67
2022/10/11 07:08:30;;;;;;;4.25;2.20;;;10.60;78.10;;;;;;5008456;28;20589;-67
2022/10/11 07:11:05;;;;;;;3.92;2.00;;;10.80;77.90;;;;;;4998716;28;20029;-65
2022/10/11 07:13:30;;;;;;;3.33;1.92;;;10.90;77.80;;;;;;5009587;28;20507;-66
2022/10/11 07:15:59;;;;;;;4.25;1.92;;;11.00;77.60;;;;;;5009838;28;20034;-66
2022/10/11 07:18:24;;;;;;;4.38;2.00;;;11.00;77.60;;;;;;5010750;28;20053;-65
2022/10/11 07:20:50;;;;;;;4.93;1.95;;;11.20;77.60;;;;;;5010493;28;20057;-66
2022/10/11 07:23:15;;;;;;;3.97;2.10;;;11.30;77.50;;;;;;5010025;28;20488;-66
2022/10/11 07:25:41;;;;;;;4.35;1.90;;;11.40;77.50;;;;;;5010165;28;20036;-67
2022/10/11 07:28:06;;;;;;;4.63;1.92;;;11.50;77.40;;;;;;5008999;28;20030;-68
2022/10/11 07:30:32;;;;;;;4.60;2.28;;;11.50;77.30;;;;;;5010185;28;20106;-68
2022/10/11 07:32:58;;;;;;;2.95;1.85;;;11.50;77.20;;;;;;5009987;28;20076;-66
2022/10/11 07:35:23;;;;;;;3.78;1.90;;;11.60;77.20;;;;;;5009859;28;20510;-68
2022/10/11 07:37:49;;;;;;;4.68;2.00;;;11.60;77.10;;;;;;5009712;28;20042;-68
2022/10/11 07:40:14;;;;;;;5.00;2.47;;;11.70;77.10;;;;;;5010227;28;20032;-67
2022/10/11 07:42:40;;;;;;;4.25;2.30;;;11.70;77.20;;;;;;5010821;28;20396;-68
2022/10/11 07:45:06;;;;;;;3.80;2.03;;;11.70;77.20;;;;;;5010665;28;20026;-67
2022/10/11 07:47:31;;;;;;;4.40;2.10;;;11.80;77.20;;;;;;5010635;28;20080;-68
2022/10/11 07:49:57;;;;;;;6.03;2.08;;;11.80;77.10;;;;;;5007881;28;20018;-68
2022/10/11 07:52:22;;;;;;;3.45;1.90;;;11.80;77.00;;;;;;5007343;28;20076;-67
2022/10/11 07:54:48;;;;;;;3.22;1.98;;;11.90;77.10;;;;;;4996987;28;20485;-66
2022/10/11 07:57:14;;;;;;;5.20;2.35;;;11.90;77.00;;;;;;5023629;28;20030;-68
2022/10/11 07:59:40;;;;;;;3.63;1.80;;;12.00;77.00;;;;;;5011222;28;20026;-68
2022/10/11 08:02:11;;;;;;;2.42;1.83;;;12.00;76.90;;;;;;5010279;28;20026;-68
2022/10/11 08:04:37;;;;;;;3.53;2.10;;;12.00;76.90;;;;;;5011238;28;20026;-68
2022/10/11 08:07:03;;;;;;;3.50;2.20;;;12.10;76.90;;;;;;5010179;28;20029;-67
2022/10/11 08:09:29;;;;;;;4.05;2.25;;;12.10;76.90;;;;;;5011452;28;20523;-66
2022/10/11 08:11:55;;;;;;;7.07;2.40;;;12.10;76.90;;;;;;5010830;28;20033;-67
2022/10/11 08:14:20;;;;;;;4.90;2.20;;;12.10;76.80;;;;;;5009570;28;20478;-68
2022/10/11 08:16:46;;;;;;;3.10;2.13;;;12.20;76.90;;;;;;5010624;28;20681;-68
2022/10/11 08:19:12;;;;;;;4.22;2.58;;;12.30;76.80;;;;;;5008674;28;20053;-68
2022/10/11 08:21:38;;;;;;;3.83;2.08;;;12.30;76.70;;;;;;5018921;28;20069;-66
2022/10/11 08:24:04;;;;;;;5.15;1.90;;;12.40;76.50;;;;;;5010358;28;20091;-66
2022/10/11 08:26:31;;;;;;;4.75;2.50;;;12.50;76.40;;;;;;5011472;28;20037;-68
2022/10/11 08:28:58;;;;;;;4.43;2.20;;;12.50;76.10;;;;;;5014584;28;20384;-68
2022/10/11 08:31:23;;;;;;;4.85;2.47;;;12.60;76.20;;;;;;5014359;28;20565;-66
2022/10/11 08:33:49;;;;;;;5.18;2.53;;;12.60;76.20;;;;;;5014001;28;20053;-66
2022/10/11 08:36:14;;;;;;;4.78;2.45;;;12.70;76.20;;;;;;5014423;28;20095;-67
2022/10/11 08:38:41;;;;;;;6.72;3.03;;;12.80;76.10;;;;;;5014429;28;20034;-67
2022/10/11 08:41:28;;;;;;;5.10;3.03;;;12.80;76.10;;;;;;5013072;28;20025;-68
2022/10/11 08:44:03;;;;;;;6.50;2.83;;;12.80;76.20;;;;;;5021303;28;20028;-65
2022/10/11 08:46:32;;;;;;;4.43;2.60;;;12.80;76.10;;;;;;5019777;28;20057;-67
2022/10/11 08:48:59;;;;;;;5.07;2.88;;;12.70;76.10;;;;;;5014193;28;20030;-68
2022/10/11 08:51:35;;;;;;;6.50;2.40;;;12.80;76.10;;;;;;5014346;28;20030;-67
2022/10/11 08:54:13;;;;;;;6.25;2.58;;;12.80;76.00;;;;;;5013342;28;20030;-67
2022/10/11 08:56:42;;;;;;;5.28;2.80;;;12.80;75.80;;;;;;5013830;28;20113;-68
2022/10/11 08:59:07;;;;;;;5.05;2.45;;;12.80;75.30;;;;;;5009382;28;20364;-68
2022/10/11 09:01:34;;;;;;;6.60;3.20;;;12.80;75.50;;;;;;5010146;28;20030;-67
2022/10/11 09:04:00;;;;;;;9.75;3.20;;;12.80;75.60;;;;;;5018723;28;20033;-68
2022/10/11 09:06:38;;;;;;;5.22;2.65;;;12.80;75.40;;;;;;5013911;28;20101;-66
2022/10/11 09:09:06;;;;;;;9.45;2.90;;;12.80;75.20;;;;;;5012775;28;20087;-67
2022/10/11 09:11:51;;;;;;;5.32;2.17;;;12.90;75.10;;;;;;5013578;28;20522;-69
2022/10/11 09:14:41;;;;;;;5.13;2.22;;;13.00;75.00;;;;;;5004254;28;20402;-67
2022/10/11 09:17:45;;;;;;;5.88;2.00;;;13.00;74.70;;;;;;5011868;28;20040;-69
2022/10/11 09:20:11;;;;;;;4.00;1.77;;;13.10;74.60;;;;;;4988290;28;20028;-68
2022/10/11 09:23:00;;;;;;;4.68;1.85;;;13.20;74.40;;;;;;4990758;28;20105;-67
2022/10/11 09:25:45;;;;;;;10.18;2.75;;;13.30;73.80;;;;;;5001790;28;20045;-68
2022/10/11 09:28:12;;;;;;;5.95;2.55;;;13.20;72.50;;;;;;5001312;28;20491;-67
2022/10/11 09:30:45;;;;;;;6.25;2.00;;;13.30;72.50;;;;;;5013474;28;20435;-68
2022/10/11 09:33:14;;;;;;;7.47;2.53;;;13.30;72.50;;;;;;5012814;28;20028;-67
2022/10/11 09:35:44;;;;;;;4.93;1.65;;;13.40;72.50;;;;;;4998191;28;20131;-68
2022/10/11 09:38:27;;;;;;;4.07;1.60;;;13.50;72.60;;;;;;5006801;28;20022;-68
2022/10/11 09:40:58;;;;;;;7.97;2.70;;;13.50;72.60;;;;;;5007420;28;20046;-68
2022/10/11 09:43:24;;;;;;;7.40;2.22;;;13.60;72.00;;;;;;5012655;28;20507;-68
2022/10/11 09:45:49;;;;;;;7.25;2.20;;;13.60;72.00;;;;;;4998306;28;20022;-67
2022/10/11 09:48:39;;;;;;;6.38;2.00;;;13.70;72.10;;;;;;5019735;28;20057;-64
2022/10/11 09:51:12;;;;;;;5.57;1.80;;;13.80;72.00;;;;;;5002539;28;20384;-67
2022/10/11 09:53:56;;;;;;;4.22;1.67;;;13.80;71.70;;;;;;4996687;28;20468;-67
2022/10/11 09:56:24;;;;;;;4.22;1.35;;;13.90;71.40;;;;;;5003249;28;20076;-67
2022/10/11 09:59:07;;;;;;;5.32;1.80;;;14.00;71.40;;;;;;5005898;28;20463;-66
2022/10/11 10:01:33;;;;;;;5.18;2.00;;;14.10;71.30;;;;;;5008031;28;20496;-67
2022/10/11 10:04:11;;;;;;;7.55;2.40;;;14.10;71.20;;;;;;5011683;28;20057;-68
2022/10/11 10:06:37;;;;;;;5.10;1.90;;;14.20;71.20;;;;;;5007534;28;20384;-67
2022/10/11 10:09:27;;;;;;;5.63;2.08;;;14.30;71.10;;;;;;5011977;28;20026;-69
2022/10/11 10:11:54;;;;;;;5.63;1.73;;;14.40;70.90;;;;;;5008951;28;20023;-68
2022/10/11 10:14:26;;;;;;;5.90;1.90;;;14.40;70.60;;;;;;5010592;28;20151;-66
2022/10/11 10:17:02;;;;;;;;;;;14.50;70.40;;;;;;5020146;28;20029;-66
2022/10/11 10:19:32;;;;;;;4.75;1.80;;;14.60;70.40;;;;;;5011452;28;19909;-67
2022/10/11 10:21:58;;;;;;;4.93;1.77;;;14.60;70.20;;;;;;5013219;28;20026;-68
2022/10/11 10:24:32;;;;;;;4.95;1.80;;;14.70;69.90;;;;;;5016187;28;20105;-69
2022/10/11 10:27:13;;;;;;;3.90;1.42;;;14.70;69.60;;;;;;5007583;28;20484;-69
2022/10/11 10:29:38;;;;;;;9.13;2.60;;;14.80;69.70;;;;;;5008146;28;20029;-69
2022/10/11 10:32:23;;;;;;;7.07;1.80;;;14.80;68.50;;;;;;5002265;28;20101;-69
2022/10/11 10:35:04;;;;;;;8.88;2.35;;;14.90;68.50;;;;;;5004705;28;20022;-69
2022/10/11 10:37:41;;;;;;;8.60;2.15;;;14.90;67.50;;;;;;4996394;28;20026;-68
2022/10/11 10:40:24;;;;;;;6.32;2.22;;;15.00;67.90;;;;;;5008257;28;20025;-68
2022/10/11 10:42:49;;;;;;;;;;;15.00;67.50;;;;;;5001396;28;20122;-67
2022/10/11 10:45:17;;;;;;;7.05;2.22;;;15.10;67.60;;;;;;5005974;28;20000;-66
2022/10/11 10:48:17;;;;;;;8.30;1.98;;;15.10;67.40;;;;;;5006806;28;20079;-66
2022/10/11 10:50:57;;;;;;;7.72;2.50;;;15.10;66.60;;;;;;5007921;28;20399;-68
2022/10/11 10:53:53;;;;;;;7.90;2.40;;;15.20;66.30;;;;;;5008034;28;20022;-67
2022/10/11 10:56:35;;;;;;;9.38;2.13;;;15.20;65.80;;;;;;5006770;28;20034;-68
2022/10/11 10:59:37;;;;;;;4.03;1.70;;;15.30;66.20;;;;;;4998029;28;20506;-68
2022/10/11 11:02:20;;;;;;;9.10;2.55;;;15.40;66.30;;;;;;5010631;28;20024;-68
2022/10/11 11:05:00;;;;;;;9.50;3.17;;;15.40;65.80;;;;;;5001998;28;20396;-66
2022/10/11 11:07:37;;;;;;;6.60;2.15;;;15.40;64.90;;;;;;5005027;28;20492;-66
2022/10/11 11:10:11;;;;;;;9.48;3.03;;;15.40;64.70;;;;;;5008296;28;20117;-66
2022/10/11 11:13:03;;;;;;;11.52;3.10;;;15.40;64.50;;;;;;5003092;28;20033;-67
2022/10/11 11:15:41;;;;;;;5.90;2.10;;;15.50;64.40;;;;;;5002139;28;20040;-67
2022/10/11 11:18:27;;;;;;;7.32;2.30;;;15.60;64.50;;;;;;5007602;28;20040;-67
2022/10/11 11:21:18;;;;;;;5.78;1.73;;;15.70;64.60;;;;;;5006936;28;20125;-68
2022/10/11 11:24:17;;;;;;;4.68;1.90;;;15.80;64.60;;;;;;4994254;28;20353;-67
2022/10/11 11:27:11;;;;;;;7.60;2.70;;;16.00;64.60;;;;;;4998993;28;20048;-66
2022/10/11 11:30:03;;;;;;;7.85;2.45;;;16.10;63.80;;;;;;5002586;28;20045;-67
2022/10/11 11:32:57;;;;;;;7.82;2.25;;;16.10;63.40;;;;;;5002441;28;20026;-66
2022/10/11 11:35:36;;;;;;;6.68;2.00;;;16.20;63.30;;;;;;4994655;28;20554;-68
2022/10/11 11:38:11;;;;;;;6.03;1.98;;;16.20;63.50;;;;;;4995944;28;20621;-66
2022/10/11 11:40:44;;;;;;;7.50;1.75;;;16.30;62.90;;;;;;5005325;28;20030;-65
2022/10/11 11:43:15;;;;;;;6.25;1.70;;;16.50;62.80;;;;;;5010983;28;20046;-68
2022/10/11 11:45:45;;;;;;;4.67;1.53;;;16.70;62.70;;;;;;5003075;28;20030;-67
2022/10/11 11:48:20;;;;;;;4.97;1.45;;;16.90;62.70;;;;;;5003650;28;20396;-66
2022/10/11 11:50:57;;;;;;;7.50;1.70;;;17.00;62.40;;;;;;4996247;28;20037;-66
2022/10/11 11:53:41;;;;;;;4.13;1.38;;;17.20;62.10;;;;;;5001467;28;20022;-67
2022/10/11 11:56:25;;;;;;;3.67;1.13;;;17.40;61.80;;;;;;5004889;28;20430;-66
2022/10/11 11:59:05;;;;;;;5.78;1.50;;;17.60;61.30;;;;;;5009835;28;20038;-68
2022/10/11 12:02:08;;;;;;;4.03;1.50;;;17.60;60.80;;;;;;5000405;28;20041;-68
2022/10/11 12:04:36;;;;;;;5.15;1.45;;;17.70;60.70;;;;;;5001045;28;20060;-66
2022/10/11 12:07:07;;;;;;;3.60;1.30;;;17.70;60.20;;;;;;5009722;28;20053;-66
2022/10/11 12:09:35;;;;;;;3.20;0.95;;;17.80;60.30;;;;;;4995584;28;20027;-68
2022/10/11 12:12:05;;;;;;;4.93;1.55;;;17.80;60.10;;;;;;4999663;28;20084;-68
2022/10/11 12:14:37;;;;;;;5.25;1.20;;;17.60;59.90;;;;;;4999359;28;20034;-67
2022/10/11 12:17:09;;;;;;;4.55;1.48;;;17.50;60.20;;;;;;5009454;28;20063;-67
2022/10/11 12:19:36;;;;;;;3.60;1.23;;;17.50;60.10;;;;;;5006810;28;20095;-67
2022/10/11 12:22:26;;;;;;;4.18;1.40;;;17.50;60.10;;;;;;5010013;28;20033;-68
2022/10/11 12:25:21;;;;;;;4.93;1.40;;;17.30;59.80;;;;;;4990276;28;20022;-67
2022/10/11 12:27:57;;;;;;;3.88;1.35;;;17.20;60.00;;;;;;5006665;28;20041;-65
2022/10/11 12:30:49;;;;;;;3.80;1.15;;;17.20;60.10;;;;;;5004164;28;20427;-66
2022/10/11 12:33:22;;;;;;;5.55;1.27;;;17.10;60.20;;;;;;5008872;28;20033;-67
2022/10/11 12:35:53;;;;;;;4.32;1.63;;;17.00;60.40;;;;;;5010182;28;20053;-68
2022/10/11 12:38:38;;;;;;;4.28;1.02;;;16.90;60.50;;;;;;5008043;28;20476;-65
2022/10/11 12:41:12;;;;;;;4.78;1.20;;;16.90;60.40;;;;;;5010122;28;20021;-68
2022/10/11 12:43:46;;;;;;;4.10;1.10;;;17.00;60.40;;;;;;5010606;28;20014;-67
2022/10/11 12:46:27;;;;;;;2.78;1.10;;;17.00;60.10;;;;;;5008854;28;20088;-67
2022/10/11 12:49:18;;;;;;;3.72;1.15;;;17.00;60.10;;;;;;5001119;28;20045;-68
2022/10/11 12:52:02;;;;;;;3.38;0.85;;;17.10;60.10;;;;;;5003711;28;20076;-66
2022/10/11 12:55:02;;;;;;;3.03;1.20;;;17.20;60.00;;;;;;5005355;28;20571;-67
2022/10/11 12:57:43;;;;;;;4.82;1.30;;;17.50;59.70;;;;;;5016548;28;20050;-67
2022/10/11 13:00:28;;;;;;;3.47;0.93;;;17.70;59.10;;;;;;5005648;28;20033;-67
2022/10/11 13:03:03;;;;;;;4.57;1.40;;;18.00;58.70;;;;;;5007602;28;20065;-67
2022/10/11 13:05:50;;;;;;;6.60;1.50;;;18.30;57.90;;;;;;4997182;28;20031;-67
2022/10/11 13:08:29;;;;;;;7.22;1.60;;;18.40;56.40;;;;;;4998354;28;20141;-67
2022/10/11 13:10:59;;;;;;;6.15;1.52;;;18.40;55.00;;;;;;5006061;28;20029;-67
2022/10/11 13:13:30;;;;;;;4.00;1.40;;;18.60;54.70;;;;;;5007162;28;20026;-68
2022/10/11 13:15:59;;;;;;;2.65;0.90;;;18.70;54.30;;;;;;5001517;28;20037;-68